sensor_id;sensor_type;location;lat;lon;timestamp;P1;durP1;ratioP1;P2;durP2;ratioP2
69334;SDS011;56477;52.742;15.242;2022-12-29T00:00:01;6.88;;;2.40;;
69334;SDS011;56477;52.742;15.242;2022-12-29T00:02:29;6.85;;;2.90;;
69334;SDS011;56477;52.742;15.242;2022-12-29T00:04:56;5.57;;;2.70;;
69334;SDS011;56477;52.742;15.242;2022-12-29T00:07:22;7.97;;;3.43;;
69334;SDS011;56477;52.742;15.242;2022-12-29T00:09:48;5.32;;;1.88;;
69334;SDS011;56477;52.742;15.242;2022-12-29T00:12:14;4.28;;;1.70;;
69334;SDS011;56477;52.742;15.242;2022-12-29T00:14:40;5.03;;;2.17;;
69334;SDS011;56477;52.742;15.242;2022-12-29T00:17:24;6.53;;;2.35;;
69334;SDS011;56477;52.742;15.242;2022-12-29T00:19:50;4.13;;;1.70;;
69334;SDS011;56477;52.742;15.242;2022-12-29T00:22:35;4.40;;;1.65;;
69334;SDS011;56477;52.742;15.242;2022-12-29T00:25:19;3.30;;;1.27;;
69334;SDS011;56477;52.742;15.242;2022-12-29T00:28:04;5.55;;;1.58;;
69334;SDS011;56477;52.742;15.242;2022-12-29T00:30:52;3.88;;;1.65;;
69334;SDS011;56477;52.742;15.242;2022-12-29T00:33:36;3.83;;;1.70;;
69334;SDS011;56477;52.742;15.242;2022-12-29T00:36:22;4.47;;;1.38;;
69334;SDS011;56477;52.742;15.242;2022-12-29T00:38:51;4.35;;;1.70;;
69334;SDS011;56477;52.742;15.242;2022-12-29T00:41:40;2.22;;;0.90;;
69334;SDS011;56477;52.742;15.242;2022-12-29T00:44:25;4.00;;;1.27;;
69334;SDS011;56477;52.742;15.242;2022-12-29T00:46:51;3.67;;;1.30;;
69334;SDS011;56477;52.742;15.242;2022-12-29T00:49:17;4.57;;;1.73;;
69334;SDS011;56477;52.742;15.242;2022-12-29T00:52:08;4.15;;;2.00;;
69334;SDS011;56477;52.742;15.242;2022-12-29T00:54:36;2.60;;;0.90;;
69334;SDS011;56477;52.742;15.242;2022-12-29T00:57:04;2.93;;;1.27;;
69334;SDS011;56477;52.742;15.242;2022-12-29T00:59:32;4.55;;;1.48;;
69334;SDS011;56477;52.742;15.242;2022-12-29T01:02:00;4.72;;;1.88;;
69334;SDS011;56477;52.742;15.242;2022-12-29T01:04:26;3.63;;;1.55;;
69334;SDS011;56477;52.742;15.242;2022-12-29T01:06:52;4.13;;;1.60;;
69334;SDS011;56477;52.742;15.242;2022-12-29T01:09:19;4.32;;;1.50;;
69334;SDS011;56477;52.742;15.242;2022-12-29T01:12:04;3.38;;;1.27;;
69334;SDS011;56477;52.742;15.242;2022-12-29T01:14:31;4.00;;;1.55;;
69334;SDS011;56477;52.742;15.242;2022-12-29T01:16:57;4.45;;;1.27;;
69334;SDS011;56477;52.742;15.242;2022-12-29T01:19:23;3.73;;;1.43;;
69334;SDS011;56477;52.742;15.242;2022-12-29T01:21:50;3.45;;;1.55;;
69334;SDS011;56477;52.742;15.242;2022-12-29T01:24:16;6.57;;;1.98;;
69334;SDS011;56477;52.742;15.242;2022-12-29T01:26:44;4.25;;;1.75;;
69334;SDS011;56477;52.742;15.242;2022-12-29T01:29:10;5.22;;;1.90;;
69334;SDS011;56477;52.742;15.242;2022-12-29T01:31:37;4.57;;;1.93;;
69334;SDS011;56477;52.742;15.242;2022-12-29T01:34:03;4.60;;;1.77;;
69334;SDS011;56477;52.742;15.242;2022-12-29T01:36:30;4.15;;;1.35;;
69334;SDS011;56477;52.742;15.242;2022-12-29T01:38:56;4.93;;;1.48;;
69334;SDS011;56477;52.742;15.242;2022-12-29T01:41:22;3.38;;;1.13;;
69334;SDS011;56477;52.742;15.242;2022-12-29T01:46:23;6.85;;;1.73;;
69334;SDS011;56477;52.742;15.242;2022-12-29T01:49:16;3.20;;;1.10;;
69334;SDS011;56477;52.742;15.242;2022-12-29T01:51:50;5.45;;;1.58;;
69334;SDS011;56477;52.742;15.242;2022-12-29T01:54:22;6.82;;;1.80;;
69334;SDS011;56477;52.742;15.242;2022-12-29T01:56:52;4.77;;;1.73;;
69334;SDS011;56477;52.742;15.242;2022-12-29T01:59:22;3.85;;;1.77;;
69334;SDS011;56477;52.742;15.242;2022-12-29T02:01:52;4.70;;;1.65;;
69334;SDS011;56477;52.742;15.242;2022-12-29T02:04:18;5.65;;;1.90;;
69334;SDS011;56477;52.742;15.242;2022-12-29T02:06:46;3.70;;;1.67;;
69334;SDS011;56477;52.742;15.242;2022-12-29T02:09:16;4.63;;;1.50;;
69334;SDS011;56477;52.742;15.242;2022-12-29T02:11:42;4.80;;;1.92;;
69334;SDS011;56477;52.742;15.242;2022-12-29T02:14:11;6.18;;;1.73;;
69334;SDS011;56477;52.742;15.242;2022-12-29T02:19:40;3.43;;;1.43;;
69334;SDS011;56477;52.742;15.242;2022-12-29T02:25:32;3.95;;;1.45;;
69334;SDS011;56477;52.742;15.242;2022-12-29T02:31:18;5.28;;;1.50;;
69334;SDS011;56477;52.742;15.242;2022-12-29T02:50:33;3.63;;;1.05;;
69334;SDS011;56477;52.742;15.242;2022-12-29T02:53:06;2.15;;;0.93;;
69334;SDS011;56477;52.742;15.242;2022-12-29T02:55:36;2.97;;;1.20;;
69334;SDS011;56477;52.742;15.242;2022-12-29T03:00:36;3.15;;;1.10;;
69334;SDS011;56477;52.742;15.242;2022-12-29T03:14:14;2.33;;;0.95;;
69334;SDS011;56477;52.742;15.242;2022-12-29T03:17:07;5.10;;;1.50;;
69334;SDS011;56477;52.742;15.242;2022-12-29T03:19:42;2.22;;;0.95;;
69334;SDS011;56477;52.742;15.242;2022-12-29T03:22:15;3.58;;;1.45;;
69334;SDS011;56477;52.742;15.242;2022-12-29T03:27:50;1.85;;;0.70;;
69334;SDS011;56477;52.742;15.242;2022-12-29T03:30:20;2.85;;;1.30;;
69334;SDS011;56477;52.742;15.242;2022-12-29T03:32:54;2.95;;;1.30;;
69334;SDS011;56477;52.742;15.242;2022-12-29T03:35:25;1.83;;;0.70;;
69334;SDS011;56477;52.742;15.242;2022-12-29T03:40:45;3.38;;;1.23;;
69334;SDS011;56477;52.742;15.242;2022-12-29T03:43:15;2.83;;;0.98;;
69334;SDS011;56477;52.742;15.242;2022-12-29T03:45:42;3.65;;;1.00;;
69334;SDS011;56477;52.742;15.242;2022-12-29T03:48:08;3.47;;;1.50;;
69334;SDS011;56477;52.742;15.242;2022-12-29T03:50:34;1.87;;;0.70;;
69334;SDS011;56477;52.742;15.242;2022-12-29T03:53:00;2.15;;;0.80;;
69334;SDS011;56477;52.742;15.242;2022-12-29T03:55:26;1.65;;;0.65;;
69334;SDS011;56477;52.742;15.242;2022-12-29T03:57:52;2.65;;;0.90;;
69334;SDS011;56477;52.742;15.242;2022-12-29T04:00:18;3.17;;;1.10;;
69334;SDS011;56477;52.742;15.242;2022-12-29T04:02:44;2.40;;;0.98;;
69334;SDS011;56477;52.742;15.242;2022-12-29T04:05:10;2.08;;;0.85;;
69334;SDS011;56477;52.742;15.242;2022-12-29T04:07:36;5.87;;;1.20;;
69334;SDS011;56477;52.742;15.242;2022-12-29T04:10:02;2.08;;;0.80;;
69334;SDS011;56477;52.742;15.242;2022-12-29T04:12:31;2.28;;;0.77;;
69334;SDS011;56477;52.742;15.242;2022-12-29T04:14:57;4.50;;;1.30;;
69334;SDS011;56477;52.742;15.242;2022-12-29T04:17:23;2.83;;;1.00;;
69334;SDS011;56477;52.742;15.242;2022-12-29T04:19:49;3.00;;;0.80;;
69334;SDS011;56477;52.742;15.242;2022-12-29T04:22:15;6.40;;;1.10;;
69334;SDS011;56477;52.742;15.242;2022-12-29T04:24:41;2.20;;;0.97;;
69334;SDS011;56477;52.742;15.242;2022-12-29T04:27:07;2.73;;;0.97;;
69334;SDS011;56477;52.742;15.242;2022-12-29T04:29:33;5.70;;;1.13;;
69334;SDS011;56477;52.742;15.242;2022-12-29T04:31:59;2.65;;;0.90;;
69334;SDS011;56477;52.742;15.242;2022-12-29T04:34:25;3.30;;;1.00;;
69334;SDS011;56477;52.742;15.242;2022-12-29T04:36:51;3.80;;;1.07;;
69334;SDS011;56477;52.742;15.242;2022-12-29T04:39:17;3.05;;;1.10;;
69334;SDS011;56477;52.742;15.242;2022-12-29T04:41:43;3.22;;;0.77;;
69334;SDS011;56477;52.742;15.242;2022-12-29T04:44:09;3.53;;;0.83;;
69334;SDS011;56477;52.742;15.242;2022-12-29T04:46:35;2.80;;;0.80;;
69334;SDS011;56477;52.742;15.242;2022-12-29T04:49:01;2.67;;;1.00;;
69334;SDS011;56477;52.742;15.242;2022-12-29T04:51:34;1.67;;;0.63;;
69334;SDS011;56477;52.742;15.242;2022-12-29T04:54:00;2.97;;;1.10;;
69334;SDS011;56477;52.742;15.242;2022-12-29T04:56:26;2.15;;;0.70;;
69334;SDS011;56477;52.742;15.242;2022-12-29T04:58:52;3.17;;;1.25;;
69334;SDS011;56477;52.742;15.242;2022-12-29T05:01:18;2.45;;;1.33;;
69334;SDS011;56477;52.742;15.242;2022-12-29T05:03:44;2.80;;;1.23;;
69334;SDS011;56477;52.742;15.242;2022-12-29T05:06:10;2.00;;;0.90;;
69334;SDS011;56477;52.742;15.242;2022-12-29T05:08:36;2.55;;;0.82;;
69334;SDS011;56477;52.742;15.242;2022-12-29T05:11:02;2.70;;;0.60;;
69334;SDS011;56477;52.742;15.242;2022-12-29T05:13:28;5.28;;;1.00;;
69334;SDS011;56477;52.742;15.242;2022-12-29T05:15:54;3.65;;;1.13;;
69334;SDS011;56477;52.742;15.242;2022-12-29T05:18:20;3.97;;;1.00;;
69334;SDS011;56477;52.742;15.242;2022-12-29T05:20:46;2.03;;;1.03;;
69334;SDS011;56477;52.742;15.242;2022-12-29T05:23:12;2.83;;;1.00;;
69334;SDS011;56477;52.742;15.242;2022-12-29T05:25:39;3.95;;;1.05;;
69334;SDS011;56477;52.742;15.242;2022-12-29T05:28:04;2.85;;;1.02;;
69334;SDS011;56477;52.742;15.242;2022-12-29T05:30:31;2.70;;;1.07;;
69334;SDS011;56477;52.742;15.242;2022-12-29T05:32:57;5.07;;;1.35;;
69334;SDS011;56477;52.742;15.242;2022-12-29T05:35:23;3.83;;;0.98;;
69334;SDS011;56477;52.742;15.242;2022-12-29T05:37:49;2.63;;;1.00;;
69334;SDS011;56477;52.742;15.242;2022-12-29T05:40:15;2.90;;;0.87;;
69334;SDS011;56477;52.742;15.242;2022-12-29T05:42:41;2.15;;;0.60;;
69334;SDS011;56477;52.742;15.242;2022-12-29T05:45:07;2.95;;;1.27;;
69334;SDS011;56477;52.742;15.242;2022-12-29T05:47:33;4.32;;;1.13;;
69334;SDS011;56477;52.742;15.242;2022-12-29T05:50:00;3.60;;;0.70;;
69334;SDS011;56477;52.742;15.242;2022-12-29T05:52:27;2.70;;;0.80;;
69334;SDS011;56477;52.742;15.242;2022-12-29T05:54:53;3.92;;;1.08;;
69334;SDS011;56477;52.742;15.242;2022-12-29T05:57:19;2.75;;;1.10;;
69334;SDS011;56477;52.742;15.242;2022-12-29T05:59:45;2.37;;;0.70;;
69334;SDS011;56477;52.742;15.242;2022-12-29T06:02:11;2.47;;;0.98;;
69334;SDS011;56477;52.742;15.242;2022-12-29T06:04:37;3.63;;;1.48;;
69334;SDS011;56477;52.742;15.242;2022-12-29T06:07:03;3.37;;;1.43;;
69334;SDS011;56477;52.742;15.242;2022-12-29T06:09:29;4.75;;;1.10;;
69334;SDS011;56477;52.742;15.242;2022-12-29T06:11:55;4.70;;;1.52;;
69334;SDS011;56477;52.742;15.242;2022-12-29T06:14:21;2.92;;;1.33;;
69334;SDS011;56477;52.742;15.242;2022-12-29T06:16:47;4.70;;;0.70;;
69334;SDS011;56477;52.742;15.242;2022-12-29T06:19:13;7.00;;;1.30;;
69334;SDS011;56477;52.742;15.242;2022-12-29T06:21:39;2.65;;;1.02;;
69334;SDS011;56477;52.742;15.242;2022-12-29T06:24:05;4.13;;;1.30;;
69334;SDS011;56477;52.742;15.242;2022-12-29T06:26:31;4.82;;;1.45;;
69334;SDS011;56477;52.742;15.242;2022-12-29T06:28:58;4.80;;;1.20;;
69334;SDS011;56477;52.742;15.242;2022-12-29T06:31:23;3.42;;;1.33;;
69334;SDS011;56477;52.742;15.242;2022-12-29T06:33:49;5.25;;;1.27;;
69334;SDS011;56477;52.742;15.242;2022-12-29T06:36:15;2.97;;;1.27;;
69334;SDS011;56477;52.742;15.242;2022-12-29T06:38:41;3.42;;;1.20;;
69334;SDS011;56477;52.742;15.242;2022-12-29T06:41:07;4.70;;;1.25;;
69334;SDS011;56477;52.742;15.242;2022-12-29T06:43:33;3.28;;;1.05;;
69334;SDS011;56477;52.742;15.242;2022-12-29T06:46:01;2.93;;;1.20;;
69334;SDS011;56477;52.742;15.242;2022-12-29T06:48:27;3.15;;;1.00;;
69334;SDS011;56477;52.742;15.242;2022-12-29T06:50:53;4.03;;;1.25;;
69334;SDS011;56477;52.742;15.242;2022-12-29T06:53:19;2.95;;;0.77;;
69334;SDS011;56477;52.742;15.242;2022-12-29T06:55:45;5.93;;;1.73;;
69334;SDS011;56477;52.742;15.242;2022-12-29T06:58:11;4.45;;;2.45;;
69334;SDS011;56477;52.742;15.242;2022-12-29T07:00:37;4.15;;;1.83;;
69334;SDS011;56477;52.742;15.242;2022-12-29T07:03:03;4.07;;;1.92;;
69334;SDS011;56477;52.742;15.242;2022-12-29T07:05:30;5.27;;;1.73;;
69334;SDS011;56477;52.742;15.242;2022-12-29T07:07:58;3.45;;;1.63;;
69334;SDS011;56477;52.742;15.242;2022-12-29T07:10:24;5.03;;;1.88;;
69334;SDS011;56477;52.742;15.242;2022-12-29T07:12:50;4.38;;;1.75;;
69334;SDS011;56477;52.742;15.242;2022-12-29T07:15:16;4.53;;;2.00;;
69334;SDS011;56477;52.742;15.242;2022-12-29T07:17:42;5.97;;;1.48;;
69334;SDS011;56477;52.742;15.242;2022-12-29T07:20:08;4.32;;;1.98;;
69334;SDS011;56477;52.742;15.242;2022-12-29T07:22:35;2.78;;;1.30;;
69334;SDS011;56477;52.742;15.242;2022-12-29T07:25:01;2.92;;;1.40;;
69334;SDS011;56477;52.742;15.242;2022-12-29T07:27:28;3.13;;;1.00;;
69334;SDS011;56477;52.742;15.242;2022-12-29T07:29:54;4.10;;;1.23;;
69334;SDS011;56477;52.742;15.242;2022-12-29T07:32:20;5.43;;;1.23;;
69334;SDS011;56477;52.742;15.242;2022-12-29T07:34:46;3.37;;;1.43;;
69334;SDS011;56477;52.742;15.242;2022-12-29T07:37:14;2.67;;;1.10;;
69334;SDS011;56477;52.742;15.242;2022-12-29T07:39:41;4.07;;;1.40;;
69334;SDS011;56477;52.742;15.242;2022-12-29T07:42:07;2.83;;;1.15;;
69334;SDS011;56477;52.742;15.242;2022-12-29T07:44:33;4.18;;;1.40;;
69334;SDS011;56477;52.742;15.242;2022-12-29T07:46:59;3.00;;;1.30;;
69334;SDS011;56477;52.742;15.242;2022-12-29T07:49:25;3.20;;;1.23;;
69334;SDS011;56477;52.742;15.242;2022-12-29T07:51:51;3.83;;;1.60;;
69334;SDS011;56477;52.742;15.242;2022-12-29T07:54:17;3.25;;;1.20;;
69334;SDS011;56477;52.742;15.242;2022-12-29T07:56:46;2.87;;;1.27;;
69334;SDS011;56477;52.742;15.242;2022-12-29T07:59:11;3.75;;;1.73;;
69334;SDS011;56477;52.742;15.242;2022-12-29T08:01:38;4.78;;;1.90;;
69334;SDS011;56477;52.742;15.242;2022-12-29T08:04:04;7.55;;;1.50;;
69334;SDS011;56477;52.742;15.242;2022-12-29T08:06:31;6.87;;;1.67;;
69334;SDS011;56477;52.742;15.242;2022-12-29T08:08:57;3.85;;;1.60;;
69334;SDS011;56477;52.742;15.242;2022-12-29T08:11:23;3.80;;;1.17;;
69334;SDS011;56477;52.742;15.242;2022-12-29T08:13:50;2.75;;;0.88;;
69334;SDS011;56477;52.742;15.242;2022-12-29T08:16:16;6.30;;;1.90;;
69334;SDS011;56477;52.742;15.242;2022-12-29T08:18:42;4.27;;;1.70;;
69334;SDS011;56477;52.742;15.242;2022-12-29T08:21:08;5.00;;;1.58;;
69334;SDS011;56477;52.742;15.242;2022-12-29T08:23:34;5.88;;;1.92;;
69334;SDS011;56477;52.742;15.242;2022-12-29T08:26:01;5.57;;;2.17;;
69334;SDS011;56477;52.742;15.242;2022-12-29T08:28:28;4.57;;;1.70;;
69334;SDS011;56477;52.742;15.242;2022-12-29T08:30:59;4.70;;;1.90;;
69334;SDS011;56477;52.742;15.242;2022-12-29T08:33:26;6.63;;;2.28;;
69334;SDS011;56477;52.742;15.242;2022-12-29T08:35:58;5.38;;;2.03;;
69334;SDS011;56477;52.742;15.242;2022-12-29T08:38:28;4.90;;;2.03;;
69334;SDS011;56477;52.742;15.242;2022-12-29T08:40:55;6.22;;;2.38;;
69334;SDS011;56477;52.742;15.242;2022-12-29T08:43:21;6.10;;;1.88;;
69334;SDS011;56477;52.742;15.242;2022-12-29T08:45:50;5.15;;;1.55;;
69334;SDS011;56477;52.742;15.242;2022-12-29T08:48:16;3.70;;;1.52;;
69334;SDS011;56477;52.742;15.242;2022-12-29T08:50:45;2.67;;;0.83;;
69334;SDS011;56477;52.742;15.242;2022-12-29T08:53:11;4.22;;;1.45;;
69334;SDS011;56477;52.742;15.242;2022-12-29T08:55:38;2.88;;;1.25;;
69334;SDS011;56477;52.742;15.242;2022-12-29T08:58:03;2.53;;;1.08;;
69334;SDS011;56477;52.742;15.242;2022-12-29T09:00:30;3.53;;;1.37;;
69334;SDS011;56477;52.742;15.242;2022-12-29T09:02:55;3.35;;;1.05;;
69334;SDS011;56477;52.742;15.242;2022-12-29T09:05:22;2.70;;;1.35;;
69334;SDS011;56477;52.742;15.242;2022-12-29T09:07:47;3.67;;;1.35;;
69334;SDS011;56477;52.742;15.242;2022-12-29T09:10:14;2.90;;;1.00;;
69334;SDS011;56477;52.742;15.242;2022-12-29T09:12:40;2.80;;;1.20;;
69334;SDS011;56477;52.742;15.242;2022-12-29T09:15:06;3.08;;;1.02;;
69334;SDS011;56477;52.742;15.242;2022-12-29T09:17:33;2.67;;;1.00;;
69334;SDS011;56477;52.742;15.242;2022-12-29T09:20:12;3.38;;;1.10;;
69334;SDS011;56477;52.742;15.242;2022-12-29T09:22:42;5.37;;;1.20;;
69334;SDS011;56477;52.742;15.242;2022-12-29T09:25:09;3.63;;;1.60;;
69334;SDS011;56477;52.742;15.242;2022-12-29T09:27:36;3.38;;;0.98;;
69334;SDS011;56477;52.742;15.242;2022-12-29T09:30:03;4.68;;;1.38;;
69334;SDS011;56477;52.742;15.242;2022-12-29T09:32:32;3.55;;;1.45;;
69334;SDS011;56477;52.742;15.242;2022-12-29T09:34:58;5.37;;;1.80;;
69334;SDS011;56477;52.742;15.242;2022-12-29T09:37:24;4.43;;;1.42;;
69334;SDS011;56477;52.742;15.242;2022-12-29T09:39:50;3.92;;;1.67;;
69334;SDS011;56477;52.742;15.242;2022-12-29T09:44:49;3.20;;;1.03;;
69334;SDS011;56477;52.742;15.242;2022-12-29T09:47:25;2.53;;;1.13;;
69334;SDS011;56477;52.742;15.242;2022-12-29T10:00:47;3.97;;;1.00;;
69334;SDS011;56477;52.742;15.242;2022-12-29T10:09:20;1.83;;;1.00;;
69334;SDS011;56477;52.742;15.242;2022-12-29T10:17:34;2.90;;;1.65;;
69334;SDS011;56477;52.742;15.242;2022-12-29T10:20:14;2.33;;;1.10;;
69334;SDS011;56477;52.742;15.242;2022-12-29T10:25:55;2.50;;;1.00;;
69334;SDS011;56477;52.742;15.242;2022-12-29T10:28:37;5.25;;;1.20;;
69334;SDS011;56477;52.742;15.242;2022-12-29T10:31:22;3.05;;;1.23;;
69334;SDS011;56477;52.742;15.242;2022-12-29T10:33:51;2.78;;;1.00;;
69334;SDS011;56477;52.742;15.242;2022-12-29T10:36:43;2.53;;;0.70;;
69334;SDS011;56477;52.742;15.242;2022-12-29T10:41:46;2.63;;;1.00;;
69334;SDS011;56477;52.742;15.242;2022-12-29T10:44:16;2.10;;;1.20;;
69334;SDS011;56477;52.742;15.242;2022-12-29T10:46:43;2.53;;;0.95;;
69334;SDS011;56477;52.742;15.242;2022-12-29T10:49:14;4.18;;;1.40;;
69334;SDS011;56477;52.742;15.242;2022-12-29T10:51:44;2.03;;;1.00;;
69334;SDS011;56477;52.742;15.242;2022-12-29T10:57:12;2.42;;;1.27;;
69334;SDS011;56477;52.742;15.242;2022-12-29T10:59:43;3.45;;;1.30;;
69334;SDS011;56477;52.742;15.242;2022-12-29T11:07:49;2.72;;;0.98;;
69334;SDS011;56477;52.742;15.242;2022-12-29T11:10:29;1.02;;;0.50;;
69334;SDS011;56477;52.742;15.242;2022-12-29T11:15:47;3.27;;;1.30;;
69334;SDS011;56477;52.742;15.242;2022-12-29T11:20:54;2.80;;;0.98;;
69334;SDS011;56477;52.742;15.242;2022-12-29T11:26:14;2.50;;;0.93;;
69334;SDS011;56477;52.742;15.242;2022-12-29T11:31:50;2.70;;;0.65;;
69334;SDS011;56477;52.742;15.242;2022-12-29T11:34:30;2.95;;;1.40;;
69334;SDS011;56477;52.742;15.242;2022-12-29T11:37:02;3.17;;;1.38;;
69334;SDS011;56477;52.742;15.242;2022-12-29T11:42:00;3.60;;;1.20;;
69334;SDS011;56477;52.742;15.242;2022-12-29T11:44:35;2.92;;;0.93;;
69334;SDS011;56477;52.742;15.242;2022-12-29T11:47:03;2.70;;;1.55;;
69334;SDS011;56477;52.742;15.242;2022-12-29T11:49:33;2.67;;;1.23;;
69334;SDS011;56477;52.742;15.242;2022-12-29T11:52:00;4.78;;;1.33;;
69334;SDS011;56477;52.742;15.242;2022-12-29T11:54:29;2.50;;;0.77;;
69334;SDS011;56477;52.742;15.242;2022-12-29T11:57:07;2.92;;;0.95;;
69334;SDS011;56477;52.742;15.242;2022-12-29T12:04:40;2.88;;;1.20;;
69334;SDS011;56477;52.742;15.242;2022-12-29T12:12:24;3.55;;;1.10;;
69334;SDS011;56477;52.742;15.242;2022-12-29T12:14:56;4.45;;;1.20;;
69334;SDS011;56477;52.742;15.242;2022-12-29T12:17:29;2.00;;;0.73;;
69334;SDS011;56477;52.742;15.242;2022-12-29T12:20:05;2.83;;;1.00;;
69334;SDS011;56477;52.742;15.242;2022-12-29T12:28:34;5.05;;;1.58;;
69334;SDS011;56477;52.742;15.242;2022-12-29T12:31:06;4.23;;;1.47;;
69334;SDS011;56477;52.742;15.242;2022-12-29T12:33:44;2.78;;;0.98;;
69334;SDS011;56477;52.742;15.242;2022-12-29T12:47:01;2.28;;;0.80;;
69334;SDS011;56477;52.742;15.242;2022-12-29T12:52:26;2.42;;;0.88;;
69334;SDS011;56477;52.742;15.242;2022-12-29T12:55:30;2.72;;;1.05;;
69334;SDS011;56477;52.742;15.242;2022-12-29T13:00:36;2.95;;;1.05;;
69334;SDS011;56477;52.742;15.242;2022-12-29T13:03:34;3.33;;;0.98;;
69334;SDS011;56477;52.742;15.242;2022-12-29T13:14:40;2.97;;;0.95;;
69334;SDS011;56477;52.742;15.242;2022-12-29T13:20:04;3.35;;;0.95;;
69334;SDS011;56477;52.742;15.242;2022-12-29T13:22:59;3.55;;;0.90;;
69334;SDS011;56477;52.742;15.242;2022-12-29T13:25:47;3.27;;;0.90;;
69334;SDS011;56477;52.742;15.242;2022-12-29T13:28:29;2.53;;;1.00;;
69334;SDS011;56477;52.742;15.242;2022-12-29T13:39:03;1.70;;;0.77;;
69334;SDS011;56477;52.742;15.242;2022-12-29T13:41:43;3.22;;;0.95;;
69334;SDS011;56477;52.742;15.242;2022-12-29T13:47:05;2.28;;;0.80;;
69334;SDS011;56477;52.742;15.242;2022-12-29T13:49:54;3.75;;;1.80;;
69334;SDS011;56477;52.742;15.242;2022-12-29T13:52:32;3.27;;;1.50;;
69334;SDS011;56477;52.742;15.242;2022-12-29T13:57:49;3.97;;;1.88;;
69334;SDS011;56477;52.742;15.242;2022-12-29T14:00:24;3.17;;;1.75;;
69334;SDS011;56477;52.742;15.242;2022-12-29T14:06:02;5.83;;;2.03;;
69334;SDS011;56477;52.742;15.242;2022-12-29T14:08:40;6.95;;;1.60;;
69334;SDS011;56477;52.742;15.242;2022-12-29T14:11:09;5.40;;;2.45;;
69334;SDS011;56477;52.742;15.242;2022-12-29T14:13:40;6.38;;;2.65;;
69334;SDS011;56477;52.742;15.242;2022-12-29T14:16:10;5.30;;;2.17;;
69334;SDS011;56477;52.742;15.242;2022-12-29T14:18:50;6.00;;;2.50;;
69334;SDS011;56477;52.742;15.242;2022-12-29T14:21:23;6.65;;;1.90;;
69334;SDS011;56477;52.742;15.242;2022-12-29T14:23:57;9.00;;;2.78;;
69334;SDS011;56477;52.742;15.242;2022-12-29T14:34:45;5.95;;;2.05;;
69334;SDS011;56477;52.742;15.242;2022-12-29T14:37:28;5.30;;;2.08;;
69334;SDS011;56477;52.742;15.242;2022-12-29T14:42:45;4.20;;;2.05;;
69334;SDS011;56477;52.742;15.242;2022-12-29T14:47:42;4.43;;;1.90;;
69334;SDS011;56477;52.742;15.242;2022-12-29T14:53:00;5.68;;;1.73;;
69334;SDS011;56477;52.742;15.242;2022-12-29T14:58:16;2.37;;;0.87;;
69334;SDS011;56477;52.742;15.242;2022-12-29T15:00:46;4.38;;;1.80;;
69334;SDS011;56477;52.742;15.242;2022-12-29T15:05:51;3.35;;;1.30;;
69334;SDS011;56477;52.742;15.242;2022-12-29T15:08:21;3.47;;;1.38;;
69334;SDS011;56477;52.742;15.242;2022-12-29T15:11:41;3.83;;;1.67;;
69334;SDS011;56477;52.742;15.242;2022-12-29T15:13:43;4.20;;;1.70;;
69334;SDS011;56477;52.742;15.242;2022-12-29T15:16:24;5.20;;;2.25;;
69334;SDS011;56477;52.742;15.242;2022-12-29T15:18:59;3.53;;;1.27;;
69334;SDS011;56477;52.742;15.242;2022-12-29T15:21:26;5.63;;;2.80;;
69334;SDS011;56477;52.742;15.242;2022-12-29T15:23:59;6.15;;;2.72;;
69334;SDS011;56477;52.742;15.242;2022-12-29T15:29:31;8.15;;;3.90;;
69334;SDS011;56477;52.742;15.242;2022-12-29T15:32:00;8.82;;;3.88;;
69334;SDS011;56477;52.742;15.242;2022-12-29T15:34:36;5.87;;;2.57;;
69334;SDS011;56477;52.742;15.242;2022-12-29T15:37:05;7.63;;;3.13;;
69334;SDS011;56477;52.742;15.242;2022-12-29T15:39:33;7.55;;;3.55;;
69334;SDS011;56477;52.742;15.242;2022-12-29T15:42:01;4.07;;;1.83;;
69334;SDS011;56477;52.742;15.242;2022-12-29T15:44:38;7.63;;;3.13;;
69334;SDS011;56477;52.742;15.242;2022-12-29T15:47:10;7.53;;;3.70;;
69334;SDS011;56477;52.742;15.242;2022-12-29T15:49:49;10.05;;;4.40;;
69334;SDS011;56477;52.742;15.242;2022-12-29T15:52:19;7.20;;;3.50;;
69334;SDS011;56477;52.742;15.242;2022-12-29T15:54:50;7.88;;;4.00;;
69334;SDS011;56477;52.742;15.242;2022-12-29T15:59:47;7.77;;;3.43;;
69334;SDS011;56477;52.742;15.242;2022-12-29T16:02:13;7.85;;;3.28;;
69334;SDS011;56477;52.742;15.242;2022-12-29T16:04:39;7.82;;;3.13;;
69334;SDS011;56477;52.742;15.242;2022-12-29T16:07:29;6.13;;;2.60;;
69334;SDS011;56477;52.742;15.242;2022-12-29T16:09:58;6.80;;;3.15;;
69334;SDS011;56477;52.742;15.242;2022-12-29T16:12:30;7.00;;;3.47;;
69334;SDS011;56477;52.742;15.242;2022-12-29T16:15:00;8.52;;;3.08;;
69334;SDS011;56477;52.742;15.242;2022-12-29T16:17:30;7.75;;;3.85;;
69334;SDS011;56477;52.742;15.242;2022-12-29T16:20:01;7.57;;;3.50;;
69334;SDS011;56477;52.742;15.242;2022-12-29T16:22:32;9.18;;;3.28;;
69334;SDS011;56477;52.742;15.242;2022-12-29T16:25:24;7.37;;;3.50;;
69334;SDS011;56477;52.742;15.242;2022-12-29T16:27:51;9.02;;;4.15;;
69334;SDS011;56477;52.742;15.242;2022-12-29T16:30:22;8.05;;;3.83;;
69334;SDS011;56477;52.742;15.242;2022-12-29T16:32:51;8.95;;;3.80;;
69334;SDS011;56477;52.742;15.242;2022-12-29T16:35:20;9.10;;;4.13;;
69334;SDS011;56477;52.742;15.242;2022-12-29T16:40:53;12.77;;;5.30;;
69334;SDS011;56477;52.742;15.242;2022-12-29T16:43:25;11.65;;;5.47;;
69334;SDS011;56477;52.742;15.242;2022-12-29T16:48:26;10.57;;;4.70;;
69334;SDS011;56477;52.742;15.242;2022-12-29T16:54:02;9.25;;;3.72;;
69334;SDS011;56477;52.742;15.242;2022-12-29T16:56:35;7.95;;;4.05;;
69334;SDS011;56477;52.742;15.242;2022-12-29T17:01:53;5.32;;;1.52;;
69334;SDS011;56477;52.742;15.242;2022-12-29T17:04:19;7.53;;;2.53;;
69334;SDS011;56477;52.742;15.242;2022-12-29T17:06:46;5.97;;;2.42;;
69334;SDS011;56477;52.742;15.242;2022-12-29T17:11:44;9.35;;;4.28;;
69334;SDS011;56477;52.742;15.242;2022-12-29T17:17:10;4.82;;;2.08;;
69334;SDS011;56477;52.742;15.242;2022-12-29T17:19:48;4.60;;;1.70;;
69334;SDS011;56477;52.742;15.242;2022-12-29T17:22:21;2.33;;;0.82;;
69334;SDS011;56477;52.742;15.242;2022-12-29T17:24:50;4.60;;;0.77;;
69334;SDS011;56477;52.742;15.242;2022-12-29T17:27:21;1.77;;;0.80;;
69334;SDS011;56477;52.742;15.242;2022-12-29T17:29:50;2.95;;;0.75;;
69334;SDS011;56477;52.742;15.242;2022-12-29T17:32:20;2.47;;;0.60;;
69334;SDS011;56477;52.742;15.242;2022-12-29T17:34:46;3.08;;;0.80;;
69334;SDS011;56477;52.742;15.242;2022-12-29T17:39:58;4.33;;;1.17;;
69334;SDS011;56477;52.742;15.242;2022-12-29T17:42:24;3.53;;;1.10;;
69334;SDS011;56477;52.742;15.242;2022-12-29T17:44:50;4.20;;;1.65;;
69334;SDS011;56477;52.742;15.242;2022-12-29T17:47:17;3.67;;;1.65;;
69334;SDS011;56477;52.742;15.242;2022-12-29T17:49:43;4.40;;;1.93;;
69334;SDS011;56477;52.742;15.242;2022-12-29T17:52:11;3.67;;;1.27;;
69334;SDS011;56477;52.742;15.242;2022-12-29T17:54:41;3.15;;;1.38;;
69334;SDS011;56477;52.742;15.242;2022-12-29T17:57:12;3.47;;;1.30;;
69334;SDS011;56477;52.742;15.242;2022-12-29T17:59:40;2.30;;;0.90;;
69334;SDS011;56477;52.742;15.242;2022-12-29T18:02:40;3.13;;;1.70;;
69334;SDS011;56477;52.742;15.242;2022-12-29T18:04:59;4.40;;;1.40;;
69334;SDS011;56477;52.742;15.242;2022-12-29T18:07:25;3.65;;;1.20;;
69334;SDS011;56477;52.742;15.242;2022-12-29T18:09:53;2.67;;;0.88;;
69334;SDS011;56477;52.742;15.242;2022-12-29T18:12:25;3.85;;;1.13;;
69334;SDS011;56477;52.742;15.242;2022-12-29T18:14:58;5.57;;;2.00;;
69334;SDS011;56477;52.742;15.242;2022-12-29T18:17:24;4.20;;;1.73;;